Terminal Aerodrome Forecast
Issued by NWS

Home | Current Version | Previous Version | Text Only | Print | Product List | Glossary On
Versions: 1 2 3 4 5 6 7 8 9 10 11 12 13 14 15 16 17 18 19 20 21 22 23 24 25 26 27 28 29 30 31 32 33 34 35 36 37 38 39 40 41
000
FTUS41 KBOX 062324
TAFFMH
TAF
KFMH 062324Z 0700/0724 21006KT P6SM FEW250
     FM070400 20005KT 6SM BR SCT100
     FM071100 18005KT 3SM BR BKN020
     FM071300 18008KT 6SM BR BKN020
     FM071800 19010G18KT P6SM BKN050=

USA.gov is the U.S. government's official web portal to all federal, state and local government web resources and services.